Garanhuns, Brazil
Current Conditions -  °F | °C
As of 5:00 AM on Monday 24 Nov 2014 (Local Time) from SBMO Reporting Station
Few Clouds Few Clouds  
Wind Chill: 70°   Ceiling: Unl
Heat Index: 70°   Visibility: 6mi
Dew Point: 70°   Wind: 3mph
Humidity: 100%   Direction: 20°NNE
Pressure: 29.97"   Gusts: NA
Location:  8.89°S, 36.5°W
Report Text: SBMO 240800Z 02003KT 9999 FEW020 21/21 Q1015
Loading
Personal Weather Stations






























Interactive Weather Map New forecast layout! Learn more

10-Day Weather Forecast

Advertisements
Track Severe Weather on mobile